createdAt,value
2023-04-02T00:00:29.406Z,9.418459
2023-04-02T00:01:29.396Z,9.418411
2023-04-02T00:02:29.534Z,9.418399
2023-04-02T00:03:29.435Z,9.418506
2023-04-02T00:04:29.381Z,9.418495
2023-04-02T00:05:29.381Z,9.418499
2023-04-02T00:06:29.374Z,9.418430
2023-04-02T00:07:29.367Z,9.418511
2023-04-02T00:08:29.369Z,9.418538
2023-04-02T00:09:29.344Z,9.418533
2023-04-02T00:10:29.362Z,9.418516
2023-04-02T00:11:29.345Z,9.418498
2023-04-02T00:12:29.334Z,9.418446
2023-04-02T00:13:29.316Z,9.418451
2023-04-02T00:14:29.320Z,9.418448
2023-04-02T00:15:29.309Z,9.418480
2023-04-02T00:16:29.441Z,9.418466
2023-04-02T00:17:29.305Z,9.418546
2023-04-02T00:18:29.291Z,9.418346
2023-04-02T00:19:29.281Z,9.418356
2023-04-02T00:20:29.292Z,9.418341
2023-04-02T00:21:29.272Z,9.418313
2023-04-02T00:22:29.320Z,9.418316
2023-04-02T00:23:29.252Z,9.418389
2023-04-02T00:24:29.246Z,9.418387
2023-04-02T00:25:29.241Z,9.418400
2023-04-02T00:26:29.238Z,9.418345
2023-04-02T00:27:29.243Z,9.418381
2023-04-02T00:28:29.232Z,9.418299
2023-04-02T00:29:29.208Z,9.418301
2023-04-02T00:30:29.208Z,9.418322
2023-04-02T00:31:29.223Z,9.418305
2023-04-02T00:32:29.257Z,9.418344
2023-04-02T00:33:29.179Z,9.418359
2023-04-02T00:34:29.219Z,9.418306
2023-04-02T00:35:29.219Z,9.418331
2023-04-02T00:36:29.168Z,9.418388
2023-04-02T00:37:29.167Z,9.418311
2023-04-02T00:38:29.151Z,9.418154
2023-04-02T00:39:29.158Z,9.418201
2023-04-02T00:40:29.168Z,9.418264
2023-04-02T00:41:29.144Z,9.418270
2023-04-02T00:42:29.158Z,9.418202
2023-04-02T00:43:29.124Z,9.418260
2023-04-02T00:44:29.131Z,9.418196
2023-04-02T00:45:29.172Z,9.418121
2023-04-02T00:46:29.163Z,9.418155
2023-04-02T00:47:29.161Z,9.418328
2023-04-02T00:48:29.095Z,9.418442
2023-04-02T00:49:29.075Z,9.418386
2023-04-02T00:50:29.072Z,9.418458
2023-04-02T00:51:29.064Z,9.418251
2023-04-02T00:52:29.104Z,9.418517
2023-04-02T00:53:29.065Z,9.418494
2023-04-02T00:54:29.050Z,9.418458
2023-04-02T00:55:29.035Z,9.418612
2023-04-02T00:56:29.034Z,9.418089
2023-04-02T00:57:29.118Z,9.418568
2023-04-02T00:58:29.029Z,9.418242
2023-04-02T00:59:29.019Z,9.418403
2023-04-02T01:00:29.015Z,9.418418
2023-04-02T01:01:29.040Z,9.418736
2023-04-02T01:02:29.094Z,9.418986
2023-04-02T01:03:29.318Z,9.418736
2023-04-02T01:04:28.984Z,9.418559
2023-04-02T01:05:28.971Z,9.418230
2023-04-02T01:06:28.970Z,9.418278
2023-04-02T01:07:28.969Z,9.418377
2023-04-02T01:08:28.973Z,9.418298
2023-04-02T01:09:28.947Z,9.418483
2023-04-02T01:10:28.936Z,9.418429
2023-04-02T01:11:28.942Z,9.418427
2023-04-02T01:12:28.924Z,9.418416
2023-04-02T01:13:28.912Z,9.418497
2023-04-02T01:14:28.921Z,9.418760
2023-04-02T01:15:29.045Z,9.418577
2023-04-02T01:16:28.996Z,9.418505
2023-04-02T01:17:28.935Z,9.418544
2023-04-02T01:18:28.880Z,9.418454
2023-04-02T01:19:28.883Z,9.418537
2023-04-02T01:20:28.880Z,9.418404
2023-04-02T01:21:28.875Z,9.418388
2023-04-02T01:22:28.851Z,9.418409
2023-04-02T01:23:28.856Z,9.418365
2023-04-02T01:24:28.841Z,9.418350
2023-04-02T01:25:28.867Z,9.418215
2023-04-02T01:26:28.836Z,9.418115
2023-04-02T01:27:28.809Z,9.417776
2023-04-02T01:28:28.815Z,9.418069
2023-04-02T01:29:28.802Z,9.418233
2023-04-02T01:30:29.819Z,9.418108
2023-04-02T01:31:28.845Z,9.418198
2023-04-02T01:32:28.815Z,9.418246
2023-04-02T01:33:28.791Z,9.418252
2023-04-02T01:34:28.952Z,9.418365
2023-04-02T01:35:28.766Z,9.418395
2023-04-02T01:36:28.797Z,9.418392
2023-04-02T01:37:28.755Z,9.418439
2023-04-02T01:38:28.750Z,9.418395
2023-04-02T01:39:28.759Z,9.418269
2023-04-02T01:40:28.729Z,9.418252
2023-04-02T01:41:28.749Z,9.418343
2023-04-02T01:42:29.734Z,9.418283
2023-04-02T01:43:28.709Z,9.418350
2023-04-02T01:44:28.706Z,9.418329
2023-04-02T01:45:28.697Z,9.418402
2023-04-02T01:46:28.746Z,9.418374
2023-04-02T01:47:28.736Z,9.418358
2023-04-02T01:48:28.679Z,9.418375
2023-04-02T01:49:28.663Z,9.418308
2023-04-02T01:50:28.657Z,9.418318
2023-04-02T01:51:28.708Z,9.418362
2023-04-02T01:52:28.665Z,9.418344
2023-04-02T01:53:28.639Z,9.418283
2023-04-02T01:54:28.642Z,9.418274
2023-04-02T01:55:28.638Z,9.418332
2023-04-02T01:56:28.629Z,9.418356
2023-04-02T01:57:28.689Z,9.418244
2023-04-02T01:58:28.628Z,9.418295
2023-04-02T01:59:28.596Z,9.418281
2023-04-02T02:00:28.666Z,9.418220
2023-04-02T02:01:28.595Z,9.418344
2023-04-02T02:02:28.680Z,9.418305
2023-04-02T02:03:28.607Z,9.418487
2023-04-02T02:04:28.575Z,9.418275
2023-04-02T02:05:28.572Z,9.418275
2023-04-02T02:06:28.555Z,9.418273
2023-04-02T02:07:28.571Z,9.418212
2023-04-02T02:08:28.562Z,9.418252
2023-04-02T02:09:28.583Z,9.418223
2023-04-02T02:10:28.539Z,9.418135
2023-04-02T02:11:28.527Z,9.418321
2023-04-02T02:12:28.526Z,9.418263
2023-04-02T02:13:28.520Z,9.418039
2023-04-02T02:14:28.533Z,9.418174
2023-04-02T02:15:28.513Z,9.418268
2023-04-02T02:16:28.549Z,9.418219
2023-04-02T02:17:28.514Z,9.418270
2023-04-02T02:18:28.483Z,9.418242
2023-04-02T02:19:28.492Z,9.418230
2023-04-02T02:20:28.468Z,9.418213
2023-04-02T02:21:28.468Z,9.418262
2023-04-02T02:22:28.479Z,9.418191
2023-04-02T02:23:28.464Z,9.418242
2023-04-02T02:24:28.476Z,9.418282
2023-04-02T02:25:28.460Z,9.418287
2023-04-02T02:26:28.433Z,9.418249
2023-04-02T02:27:28.429Z,9.418203
2023-04-02T02:28:28.421Z,9.418200
2023-04-02T02:29:28.447Z,9.418228
2023-04-02T02:30:28.438Z,9.418251
2023-04-02T02:31:28.465Z,9.418349
2023-04-02T02:32:28.411Z,9.418322
2023-04-02T02:33:28.401Z,9.418283
2023-04-02T02:34:28.376Z,9.418314
2023-04-02T02:35:28.393Z,9.418383
2023-04-02T02:36:28.374Z,9.418318
2023-04-02T02:37:28.364Z,9.418290
2023-04-02T02:38:28.355Z,9.418267
2023-04-02T02:39:28.350Z,9.418270
2023-04-02T02:40:28.375Z,9.418365
2023-04-02T02:41:29.334Z,9.418281
2023-04-02T02:42:28.337Z,9.418423
2023-04-02T02:43:28.325Z,9.418369
2023-04-02T02:44:28.313Z,9.418408
2023-04-02T02:45:28.317Z,9.418268
2023-04-02T02:46:28.338Z,9.418365
2023-04-02T02:47:28.435Z,9.418389
2023-04-02T02:48:28.283Z,9.418265
2023-04-02T02:49:28.276Z,9.418373
2023-04-02T02:50:28.262Z,9.418305
2023-04-02T02:51:28.299Z,9.418437
2023-04-02T02:52:28.273Z,9.418359
2023-04-02T02:53:28.258Z,9.418399
2023-04-02T02:54:28.247Z,9.418369
2023-04-02T02:55:28.235Z,9.418346
2023-04-02T02:56:28.229Z,9.418397
2023-04-02T02:57:28.320Z,9.418422
2023-04-02T02:58:28.223Z,9.418277
2023-04-02T02:59:28.220Z,9.418244
2023-04-02T03:00:28.204Z,9.418260
2023-04-02T03:01:28.217Z,9.418250
2023-04-02T03:02:28.249Z,9.418195
2023-04-02T03:03:29.286Z,9.418176
2023-04-02T03:04:28.205Z,9.418256
2023-04-02T03:05:28.162Z,9.418442
2023-04-02T03:06:28.169Z,9.418340
2023-04-02T03:07:28.156Z,9.418352
2023-04-02T03:08:28.143Z,9.418468
2023-04-02T03:09:28.146Z,9.418396
2023-04-02T03:10:28.135Z,9.418290
2023-04-02T03:11:28.133Z,9.418432
2023-04-02T03:12:28.112Z,9.418366
2023-04-02T03:13:28.107Z,9.418355
2023-04-02T03:14:28.114Z,9.418386
2023-04-02T03:15:28.145Z,9.418403
2023-04-02T03:16:28.081Z,9.418351
2023-04-02T03:17:28.109Z,9.418401
2023-04-02T03:18:28.083Z,9.418525
2023-04-02T03:19:28.104Z,9.418378
2023-04-02T03:20:28.062Z,9.418336
2023-04-02T03:21:28.055Z,9.418686
2023-04-02T03:22:28.037Z,9.418491
2023-04-02T03:23:28.061Z,9.418335
2023-04-02T03:24:28.040Z,9.418281
2023-04-02T03:25:28.049Z,9.418314
2023-04-02T03:26:28.034Z,9.418404
2023-04-02T03:27:28.014Z,9.418381
2023-04-02T03:28:28.011Z,9.418049
2023-04-02T03:29:27.988Z,9.418111
2023-04-02T03:30:27.990Z,9.417799
2023-04-02T03:31:28.045Z,9.418223
2023-04-02T03:32:27.994Z,9.418300
2023-04-02T03:33:27.977Z,9.418332
2023-04-02T03:34:27.979Z,9.418108
2023-04-02T03:35:27.961Z,9.418142
2023-04-02T03:36:27.969Z,9.417851
2023-04-02T03:37:27.949Z,9.418173
2023-04-02T03:38:27.946Z,9.418402
2023-04-02T03:39:27.923Z,9.418591
2023-04-02T03:40:27.923Z,9.418847
2023-04-02T03:41:27.926Z,9.418463
2023-04-02T03:42:27.908Z,9.418229
2023-04-02T03:43:27.901Z,9.418456
2023-04-02T03:44:27.893Z,9.418262
2023-04-02T03:45:27.890Z,9.418463
2023-04-02T03:46:27.948Z,9.418376
2023-04-02T03:47:27.925Z,9.418078
2023-04-02T03:48:27.870Z,9.418352
2023-04-02T03:49:27.869Z,9.418239
2023-04-02T03:50:27.883Z,9.418348
2023-04-02T03:51:27.847Z,9.418300
2023-04-02T03:52:27.844Z,9.418259
2023-04-02T03:53:27.849Z,9.418272
2023-04-02T03:54:27.822Z,9.418262
2023-04-02T03:55:27.845Z,9.418466
2023-04-02T03:56:27.829Z,9.418566
2023-04-02T03:57:27.856Z,9.418421
2023-04-02T03:58:27.816Z,9.418162
2023-04-02T03:59:27.841Z,9.418171
2023-04-02T04:00:27.812Z,9.418325
2023-04-02T04:01:27.789Z,9.418291
2023-04-02T04:02:28.889Z,9.418163
2023-04-02T04:03:28.766Z,9.418456
2023-04-02T04:04:27.815Z,9.418706
2023-04-02T04:05:27.748Z,9.419700
2023-04-02T04:06:27.757Z,9.419492
2023-04-02T04:07:27.736Z,9.419203
2023-04-02T04:08:27.726Z,9.418692
2023-04-02T04:09:27.721Z,9.418232
2023-04-02T04:10:27.741Z,9.418242
2023-04-02T04:11:27.749Z,9.418268
2023-04-02T04:12:27.707Z,9.418589
2023-04-02T04:13:27.696Z,9.418780
2023-04-02T04:14:27.711Z,9.418356
2023-04-02T04:15:27.695Z,9.418206
2023-04-02T04:16:28.707Z,9.418676
2023-04-02T04:17:27.692Z,9.418375
2023-04-02T04:18:27.660Z,9.418561
2023-04-02T04:19:27.734Z,9.418646
2023-04-02T04:20:27.654Z,9.418309
2023-04-02T04:21:27.633Z,9.418309
2023-04-02T04:22:27.645Z,9.418309
2023-04-02T04:23:27.624Z,9.418309
2023-04-02T04:24:27.622Z,9.418690
2023-04-02T04:25:27.629Z,9.418712
2023-04-02T04:26:27.615Z,9.418773
2023-04-02T04:27:27.597Z,9.418583
2023-04-02T04:28:27.648Z,9.418583
2023-04-02T04:29:27.587Z,9.418535
2023-04-02T04:30:27.592Z,9.418411
2023-04-02T04:31:27.586Z,9.418260
2023-04-02T04:32:27.947Z,9.418174
2023-04-02T04:33:27.597Z,9.418211
2023-04-02T04:34:27.555Z,9.418242
2023-04-02T04:35:27.621Z,9.418141
2023-04-02T04:36:27.546Z,9.418225
2023-04-02T04:37:27.527Z,9.418276
2023-04-02T04:38:27.593Z,9.418119
2023-04-02T04:39:27.521Z,9.418194
2023-04-02T04:40:27.525Z,9.418222
2023-04-02T04:41:27.507Z,9.418189
2023-04-02T04:42:27.516Z,9.418155
2023-04-02T04:43:27.518Z,9.418156
2023-04-02T04:44:27.514Z,9.418239
2023-04-02T04:45:27.482Z,9.418174
2023-04-02T04:46:27.554Z,9.418132
2023-04-02T04:47:27.522Z,9.418090
2023-04-02T04:48:27.478Z,9.418254
2023-04-02T04:49:27.487Z,9.418157
2023-04-02T04:50:27.457Z,9.418207
2023-04-02T04:51:27.453Z,9.418136
2023-04-02T04:52:27.436Z,9.418112
2023-04-02T04:53:27.434Z,9.418130
2023-04-02T04:54:27.440Z,9.418182
2023-04-02T04:55:27.428Z,9.418192
2023-04-02T04:56:27.414Z,9.418150
2023-04-02T04:57:27.582Z,9.418238
2023-04-02T04:58:27.403Z,9.418174
2023-04-02T04:59:27.425Z,9.418132
2023-04-02T05:00:27.397Z,9.418309
2023-04-02T05:01:27.489Z,9.418362
2023-04-02T05:02:27.395Z,9.418134
2023-04-02T05:03:27.373Z,9.418656
2023-04-02T05:04:27.420Z,9.418512
2023-04-02T05:05:27.371Z,9.418302
2023-04-02T05:06:27.365Z,9.418175
2023-04-02T05:07:27.355Z,9.418159
2023-04-02T05:08:27.362Z,9.418253
2023-04-02T05:09:28.332Z,9.418051
2023-04-02T05:10:27.391Z,9.418157
2023-04-02T05:11:27.416Z,9.418298
2023-04-02T05:12:27.400Z,9.418332
2023-04-02T05:13:27.312Z,9.418249
2023-04-02T05:14:27.294Z,9.418355
2023-04-02T05:15:27.302Z,9.418240
2023-04-02T05:16:27.412Z,9.418283
2023-04-02T05:17:27.332Z,9.418216
2023-04-02T05:18:27.263Z,9.418231
2023-04-02T05:19:27.264Z,9.418378
2023-04-02T05:20:27.262Z,9.418388
2023-04-02T05:21:27.258Z,9.418320
2023-04-02T05:22:27.251Z,9.418343
2023-04-02T05:23:27.250Z,9.418568
2023-04-02T05:24:27.224Z,9.418426
2023-04-02T05:25:27.231Z,9.418427
2023-04-02T05:26:27.232Z,9.418403
2023-04-02T05:27:27.227Z,9.418434
2023-04-02T05:28:27.204Z,9.418427
2023-04-02T05:29:27.201Z,9.418448
2023-04-02T05:30:27.194Z,9.418386
2023-04-02T05:31:27.255Z,9.418488
2023-04-02T05:32:27.231Z,9.418391
2023-04-02T05:33:27.207Z,9.418283
2023-04-02T05:34:27.219Z,9.418297
2023-04-02T05:35:27.192Z,9.418275
2023-04-02T05:36:27.193Z,9.418321
2023-04-02T05:37:27.162Z,9.418280
2023-04-02T05:38:27.155Z,9.418351
2023-04-02T05:39:27.142Z,9.418371
2023-04-02T05:40:27.120Z,9.418309
2023-04-02T05:41:27.162Z,9.418309
2023-04-02T05:42:27.121Z,9.418272
2023-04-02T05:43:27.132Z,9.418180
2023-04-02T05:44:27.109Z,9.418236
2023-04-02T05:45:27.106Z,9.418283
2023-04-02T05:46:27.136Z,9.418293
2023-04-02T05:47:27.105Z,9.418318
2023-04-02T05:48:27.084Z,9.418281
2023-04-02T05:49:27.068Z,9.418277
2023-04-02T05:50:27.082Z,9.418367
2023-04-02T05:51:27.070Z,9.418351
2023-04-02T05:52:27.057Z,9.418403
2023-04-02T05:53:27.086Z,9.418363
2023-04-02T05:54:27.039Z,9.418320
2023-04-02T05:55:27.031Z,9.418275
2023-04-02T05:56:27.024Z,9.418271
2023-04-02T05:57:39.599Z,9.418386
2023-04-02T05:58:35.365Z,9.418347
2023-04-02T05:59:29.018Z,9.418355
2023-04-02T06:00:27.002Z,9.418394
2023-04-02T06:01:27.001Z,9.418300
2023-04-02T06:02:27.125Z,9.418421
2023-04-02T06:03:27.141Z,9.418320
2023-04-02T06:04:26.990Z,9.418335
2023-04-02T06:05:26.997Z,9.418381
2023-04-02T06:06:26.967Z,9.418273
2023-04-02T06:07:26.960Z,9.418339
2023-04-02T06:08:26.957Z,9.418317
2023-04-02T06:09:26.942Z,9.418320
2023-04-02T06:10:26.967Z,9.418327
2023-04-02T06:11:26.936Z,9.418357
2023-04-02T06:12:26.919Z,9.418342
2023-04-02T06:13:26.918Z,9.418317
2023-04-02T06:14:26.905Z,9.418323
2023-04-02T06:15:26.914Z,9.418321
2023-04-02T06:16:26.940Z,9.418382
2023-04-02T06:17:26.908Z,9.418273
2023-04-02T06:18:26.876Z,9.418229
2023-04-02T06:19:26.871Z,9.418241
2023-04-02T06:20:26.866Z,9.418289
2023-04-02T06:21:26.887Z,9.418234
2023-04-02T06:22:26.847Z,9.418181
2023-04-02T06:23:26.914Z,9.418209
2023-04-02T06:24:26.852Z,9.418291
2023-04-02T06:25:26.825Z,9.418247
2023-04-02T06:26:26.842Z,9.418218
2023-04-02T06:27:26.821Z,9.418242
2023-04-02T06:28:26.862Z,9.418335
2023-04-02T06:29:26.814Z,9.418283
2023-04-02T06:30:26.824Z,9.418111
2023-04-02T06:31:26.813Z,9.418209
2023-04-02T06:32:26.860Z,9.418148
2023-04-02T06:33:26.791Z,9.418212
2023-04-02T06:34:26.771Z,9.418220
2023-04-02T06:35:26.791Z,9.418295
2023-04-02T06:36:26.768Z,9.418305
2023-04-02T06:37:26.818Z,9.418315
2023-04-02T06:38:26.773Z,9.418337
2023-04-02T06:39:26.744Z,9.418241
2023-04-02T06:40:26.762Z,9.418225
2023-04-02T06:41:26.730Z,9.418188
2023-04-02T06:42:26.739Z,9.418282
2023-04-02T06:43:26.723Z,9.418419
2023-04-02T06:44:26.726Z,9.418332
2023-04-02T06:45:26.749Z,9.418432
2023-04-02T06:46:26.746Z,9.418393
2023-04-02T06:47:26.732Z,9.418320
2023-04-02T06:48:26.697Z,9.418452
2023-04-02T06:49:26.694Z,9.418303
2023-04-02T06:50:26.868Z,9.418279
2023-04-02T06:51:26.689Z,9.418263
2023-04-02T06:52:26.666Z,9.418447
2023-04-02T06:53:26.661Z,9.418330
2023-04-02T06:54:26.658Z,9.418340
2023-04-02T06:55:26.682Z,9.418307
2023-04-02T06:56:26.652Z,9.418359
2023-04-02T06:57:26.679Z,9.418320
2023-04-02T06:58:26.621Z,9.418281
2023-04-02T06:59:26.706Z,9.418308
2023-04-02T07:00:26.658Z,9.418411
2023-04-02T07:01:26.644Z,9.418312
2023-04-02T07:02:26.663Z,9.418254
2023-04-02T07:03:26.597Z,9.418267
2023-04-02T07:04:26.601Z,9.418335
2023-04-02T07:05:26.584Z,9.418280
2023-04-02T07:06:26.578Z,9.418200
2023-04-02T07:07:26.579Z,9.418412
2023-04-02T07:08:26.563Z,9.418378
2023-04-02T07:09:26.549Z,9.418280
2023-04-02T07:10:26.538Z,9.418417
2023-04-02T07:11:26.540Z,9.418420
2023-04-02T07:12:26.577Z,9.418436
2023-04-02T07:13:26.532Z,9.418390
2023-04-02T07:14:26.540Z,9.418296
2023-04-02T07:15:26.514Z,9.418221
2023-04-02T07:16:26.603Z,9.418195
2023-04-02T07:17:26.528Z,9.418209
2023-04-02T07:18:26.501Z,9.418300
2023-04-02T07:19:26.502Z,9.418281
2023-04-02T07:20:26.481Z,9.418294
2023-04-02T07:21:26.479Z,9.418433
2023-04-02T07:22:26.472Z,9.418452
2023-04-02T07:23:26.479Z,9.418424
2023-04-02T07:24:26.476Z,9.418309
2023-04-02T07:25:26.435Z,9.418316
2023-04-02T07:26:26.443Z,9.418226
2023-04-02T07:27:26.438Z,9.418305
2023-04-02T07:28:26.455Z,9.418285
2023-04-02T07:29:26.422Z,9.418255
2023-04-02T07:30:26.427Z,9.418280
2023-04-02T07:31:26.448Z,9.418346
2023-04-02T07:32:26.427Z,9.418217
2023-04-02T07:33:26.396Z,9.418324
2023-04-02T07:34:26.420Z,9.418242
2023-04-02T07:35:26.387Z,9.418226
2023-04-02T07:36:26.384Z,9.418267
2023-04-02T07:37:26.372Z,9.418151
2023-04-02T07:38:26.364Z,9.418235
2023-04-02T07:39:26.371Z,9.418385
2023-04-02T07:40:26.347Z,9.418479
2023-04-02T07:41:26.339Z,9.418380
2023-04-02T07:42:26.341Z,9.418398
2023-04-02T07:43:26.323Z,9.418370
2023-04-02T07:44:26.320Z,9.418358
2023-04-02T07:45:26.347Z,9.418366
2023-04-02T07:46:26.345Z,9.418359
2023-04-02T07:47:26.328Z,9.418379
2023-04-02T07:48:26.300Z,9.418374
2023-04-02T07:49:26.301Z,9.418303
2023-04-02T07:50:26.329Z,9.418300
2023-04-02T07:51:26.278Z,9.418321
2023-04-02T07:52:26.305Z,9.418307
2023-04-02T07:53:26.269Z,9.418336
2023-04-02T07:54:26.269Z,9.418342
2023-04-02T07:55:26.266Z,9.418349
2023-04-02T07:56:26.258Z,9.418302
2023-04-02T07:57:26.262Z,9.418344
2023-04-02T07:58:26.227Z,9.418344
2023-04-02T07:59:26.245Z,9.418273
2023-04-02T08:00:26.218Z,9.418222
2023-04-02T08:01:26.254Z,9.418213
2023-04-02T08:02:26.280Z,9.418283
2023-04-02T08:03:26.282Z,9.418306
2023-04-02T08:04:26.189Z,9.418286
2023-04-02T08:05:26.208Z,9.418334
2023-04-02T08:06:26.178Z,9.418334
2023-04-02T08:07:26.165Z,9.418238
2023-04-02T08:08:26.167Z,9.418367
2023-04-02T08:09:26.157Z,9.418310
2023-04-02T08:10:26.165Z,9.418323
2023-04-02T08:11:26.201Z,9.418253
2023-04-02T08:12:26.183Z,9.418231
2023-04-02T08:13:26.146Z,9.418318
2023-04-02T08:14:26.122Z,9.418286
2023-04-02T08:15:26.132Z,9.418374
2023-04-02T08:16:26.164Z,9.418307
2023-04-02T08:17:26.174Z,9.418293
2023-04-02T08:18:26.096Z,9.418419
2023-04-02T08:19:26.100Z,9.418373
2023-04-02T08:20:26.100Z,9.418511
2023-04-02T08:21:26.163Z,9.418437
2023-04-02T08:22:26.068Z,9.418451
2023-04-02T08:23:26.096Z,9.418324
2023-04-02T08:24:26.065Z,9.418226
2023-04-02T08:25:26.072Z,9.418201
2023-04-02T08:26:26.052Z,9.418248
2023-04-02T08:27:26.040Z,9.418205
2023-04-02T08:28:26.050Z,9.418257
2023-04-02T08:29:26.035Z,9.418281
2023-04-02T08:30:26.024Z,9.418287
2023-04-02T08:31:26.068Z,9.418224
2023-04-02T08:32:26.013Z,9.418242
2023-04-02T08:33:26.037Z,9.418251
2023-04-02T08:34:26.005Z,9.418247
2023-04-02T08:35:26.048Z,9.418182
2023-04-02T08:36:26.016Z,9.418269
2023-04-02T08:37:25.980Z,9.418301
2023-04-02T08:38:26.031Z,9.418293
2023-04-02T08:39:25.962Z,9.418289
2023-04-02T08:40:25.971Z,9.418249
2023-04-02T08:41:25.962Z,9.418240
2023-04-02T08:42:25.981Z,9.418322
2023-04-02T08:43:25.949Z,9.418269
2023-04-02T08:44:25.938Z,9.418336
2023-04-02T08:45:25.936Z,9.418387
2023-04-02T08:46:25.967Z,9.418345
2023-04-02T08:47:25.991Z,9.418286
2023-04-02T08:48:25.914Z,9.418235
2023-04-02T08:49:25.920Z,9.418214
2023-04-02T08:50:25.890Z,9.418256
2023-04-02T08:51:25.882Z,9.418322
2023-04-02T08:52:25.883Z,9.418250
2023-04-02T08:53:25.870Z,9.418211
2023-04-02T08:54:25.885Z,9.418252
2023-04-02T08:55:25.862Z,9.418205
2023-04-02T08:56:25.853Z,9.418277
2023-04-02T08:57:25.917Z,9.418309
2023-04-02T08:58:25.845Z,9.418368
2023-04-02T08:59:25.826Z,9.418326
2023-04-02T09:00:25.822Z,9.418345
2023-04-02T09:01:25.840Z,9.418508
2023-04-02T09:02:25.831Z,9.418484
2023-04-02T09:03:25.796Z,9.418426
2023-04-02T09:04:25.805Z,9.418334
2023-04-02T09:05:25.794Z,9.418338
2023-04-02T09:06:25.794Z,9.418323
2023-04-02T09:07:25.766Z,9.418427
2023-04-02T09:08:25.761Z,9.418368
2023-04-02T09:09:25.757Z,9.418343
2023-04-02T09:10:25.753Z,9.418319
2023-04-02T09:11:25.795Z,9.418301
2023-04-02T09:12:25.753Z,9.418213
2023-04-02T09:13:25.735Z,9.418307
2023-04-02T09:14:25.718Z,9.418337
2023-04-02T09:15:25.742Z,9.418287
2023-04-02T09:16:25.765Z,9.418325
2023-04-02T09:17:25.720Z,9.418263
2023-04-02T09:18:25.759Z,9.418238
2023-04-02T09:19:25.692Z,9.418310
2023-04-02T09:20:25.714Z,9.418337
2023-04-02T09:21:25.679Z,9.418327
2023-04-02T09:22:25.696Z,9.418303
2023-04-02T09:23:25.693Z,9.418291
2023-04-02T09:24:25.673Z,9.418292
2023-04-02T09:25:25.666Z,9.418321
2023-04-02T09:26:25.644Z,9.418321
2023-04-02T09:27:25.666Z,9.418344
2023-04-02T09:28:25.673Z,9.418347
2023-04-02T09:29:25.629Z,9.418399
2023-04-02T09:30:25.620Z,9.418419
2023-04-02T09:31:25.626Z,9.418311
2023-04-02T09:32:25.627Z,9.418386
2023-04-02T09:33:26.620Z,9.418365
2023-04-02T09:34:25.732Z,9.418346
2023-04-02T09:35:27.022Z,9.418360
2023-04-02T09:36:26.604Z,9.418484
2023-04-02T09:37:25.591Z,9.418436
2023-04-02T09:38:25.588Z,9.418366
2023-04-02T09:39:25.563Z,9.418271
2023-04-02T09:40:25.580Z,9.418325
2023-04-02T09:41:25.560Z,9.418175
2023-04-02T09:42:25.531Z,9.418246
2023-04-02T09:43:25.597Z,9.418259
2023-04-02T09:44:25.642Z,9.418247
2023-04-02T09:45:25.516Z,9.418255
2023-04-02T09:46:25.543Z,9.418313
2023-04-02T09:47:25.542Z,9.418348
2023-04-02T09:48:25.505Z,9.418225
2023-04-02T09:49:25.601Z,9.418273
2023-04-02T09:50:25.479Z,9.418353
2023-04-02T09:51:25.487Z,9.418351
2023-04-02T09:52:25.474Z,9.418452
2023-04-02T09:53:25.584Z,9.418428
2023-04-02T09:54:25.578Z,9.418488
2023-04-02T09:55:25.447Z,9.418474
2023-04-02T09:56:25.452Z,9.418447
2023-04-02T09:57:25.454Z,9.418464
2023-04-02T09:58:25.428Z,9.418410
2023-04-02T09:59:25.430Z,9.418423
2023-04-02T10:00:41.663Z,9.418345
2023-04-02T10:01:27.489Z,9.418324
2023-04-02T10:02:25.501Z,9.418205
2023-04-02T10:03:25.422Z,9.418053
2023-04-02T10:04:26.454Z,9.418119
2023-04-02T10:05:39.364Z,9.418037
2023-04-02T10:06:27.363Z,9.417997
2023-04-02T10:07:25.359Z,9.418127
2023-04-02T10:08:25.374Z,9.418182
2023-04-02T10:09:25.369Z,9.418176
2023-04-02T10:10:26.370Z,9.418260
2023-04-02T10:11:28.791Z,9.418259
2023-04-02T10:12:27.339Z,9.418204
2023-04-02T10:13:25.316Z,9.418315
2023-04-02T10:14:25.307Z,9.418254
2023-04-02T10:15:25.328Z,9.418326
2023-04-02T10:16:26.966Z,9.418328
2023-04-02T10:17:26.329Z,9.418296
2023-04-02T10:18:25.288Z,9.418196
2023-04-02T10:19:25.285Z,9.418236
2023-04-02T10:20:25.289Z,9.418255
2023-04-02T10:21:25.270Z,9.418222
2023-04-02T10:22:25.274Z,9.418304
2023-04-02T10:23:25.278Z,9.418314
2023-04-02T10:24:25.238Z,9.418237
2023-04-02T10:25:26.247Z,9.418272
2023-04-02T10:26:25.238Z,9.418307
2023-04-02T10:27:25.283Z,9.418210
2023-04-02T10:28:25.236Z,9.418283
2023-04-02T10:29:25.217Z,9.418234
2023-04-02T10:30:25.204Z,9.418219
2023-04-02T10:31:25.256Z,9.418204
2023-04-02T10:32:26.239Z,9.418277
2023-04-02T10:33:25.188Z,9.418270
2023-04-02T10:34:25.181Z,9.418291
2023-04-02T10:35:25.233Z,9.418386
2023-04-02T10:36:25.167Z,9.418286
2023-04-02T10:37:25.149Z,9.418012
2023-04-02T10:38:25.195Z,9.418136
2023-04-02T10:39:26.149Z,9.418030
2023-04-02T10:40:25.126Z,9.418201
2023-04-02T10:41:25.128Z,9.418296
2023-04-02T10:42:25.117Z,9.418453
2023-04-02T10:43:25.180Z,9.418452
2023-04-02T10:44:25.128Z,9.418340
2023-04-02T10:45:25.096Z,9.418077
2023-04-02T10:46:25.591Z,9.418283
2023-04-02T10:47:26.088Z,9.418289
2023-04-02T10:48:25.159Z,9.418226
2023-04-02T10:49:25.120Z,9.418296
2023-04-02T10:50:25.070Z,9.418393
2023-04-02T10:51:25.052Z,9.418689
2023-04-02T10:52:25.063Z,9.418512
2023-04-02T10:53:25.067Z,9.418352
2023-04-02T10:54:25.046Z,9.418525
2023-04-02T10:55:25.037Z,9.418268
2023-04-02T10:56:25.026Z,9.418543
2023-04-02T10:57:25.122Z,9.418589
2023-04-02T10:58:25.035Z,9.418397
2023-04-02T10:59:25.030Z,9.418408
2023-04-02T11:00:25.001Z,9.418206
2023-04-02T11:01:25.025Z,9.418289
2023-04-02T11:02:25.070Z,9.418376
2023-04-02T11:03:25.065Z,9.418447
2023-04-02T11:04:24.987Z,9.418402
2023-04-02T11:05:24.964Z,9.418364
2023-04-02T11:06:24.968Z,9.418393
2023-04-02T11:07:24.950Z,9.418491
2023-04-02T11:08:24.950Z,9.418449
2023-04-02T11:09:24.966Z,9.418421
2023-04-02T11:10:24.933Z,9.418498
2023-04-02T11:11:24.920Z,9.418364
2023-04-02T11:12:24.926Z,9.418367
2023-04-02T11:13:24.916Z,9.418379
2023-04-02T11:14:24.924Z,9.418356
2023-04-02T11:15:24.895Z,9.418393
2023-04-02T11:16:24.960Z,9.418440
2023-04-02T11:17:24.907Z,9.418409
2023-04-02T11:18:24.906Z,9.418399
2023-04-02T11:19:24.873Z,9.418351
2023-04-02T11:20:24.889Z,9.418401
2023-04-02T11:21:24.871Z,9.418396
2023-04-02T11:22:24.856Z,9.418389
2023-04-02T11:23:24.854Z,9.418378
2023-04-02T11:24:24.838Z,9.418445
2023-04-02T11:25:24.849Z,9.418439
2023-04-02T11:26:24.850Z,9.418409
2023-04-02T11:27:24.836Z,9.418392
2023-04-02T11:28:25.161Z,9.418405
2023-04-02T11:29:24.793Z,9.418406
2023-04-02T11:30:24.803Z,9.418359
2023-04-02T11:31:24.849Z,9.418300
2023-04-02T11:32:24.806Z,9.418325
2023-04-02T11:33:35.916Z,9.418351
2023-04-02T11:34:26.789Z,9.418358
2023-04-02T11:35:24.761Z,9.418364
2023-04-02T11:36:24.810Z,9.418362
2023-04-02T11:37:24.745Z,9.418434
2023-04-02T11:38:24.757Z,9.418407
2023-04-02T11:39:24.745Z,9.418316
2023-04-02T11:40:24.762Z,9.418344
2023-04-02T11:41:24.756Z,9.418386
2023-04-02T11:42:24.716Z,9.418355
2023-04-02T11:43:24.707Z,9.418306
2023-04-02T11:44:24.709Z,9.418374